createdAt,value
2018-08-31T00:00:29.570Z,13.60
2018-08-31T00:02:57.410Z,13.50
2018-08-31T00:05:41.800Z,13.40
2018-08-31T00:08:15.353Z,13.40
2018-08-31T00:10:48.858Z,13.30
2018-08-31T00:13:16.719Z,13.20
2018-08-31T00:15:44.704Z,13.20
2018-08-31T00:18:12.675Z,13.10
2018-08-31T00:20:40.630Z,13.00
2018-08-31T00:23:08.404Z,13.00
2018-08-31T00:26:08.970Z,13.00
2018-08-31T00:28:42.499Z,13.00
2018-08-31T00:31:15.966Z,12.90
2018-08-31T00:33:49.129Z,12.90
2018-08-31T00:36:53.000Z,12.80
2018-08-31T00:39:28.189Z,12.80
2018-08-31T00:42:04.508Z,12.70
2018-08-31T00:45:41.175Z,12.70
2018-08-31T00:48:09.460Z,12.60
2018-08-31T00:50:37.672Z,12.60
2018-08-31T00:53:06.115Z,12.50
2018-08-31T00:55:34.205Z,12.60
2018-08-31T00:58:01.954Z,12.60
2018-08-31T01:00:29.943Z,12.60
2018-08-31T01:02:57.699Z,12.70
2018-08-31T01:05:25.415Z,12.60
2018-08-31T01:07:53.154Z,12.60
2018-08-31T01:10:22.273Z,12.50
2018-08-31T01:12:50.688Z,12.50
2018-08-31T01:15:18.526Z,12.60
2018-08-31T01:17:47.371Z,12.60
2018-08-31T01:20:15.147Z,12.50
2018-08-31T01:22:43.032Z,12.60
2018-08-31T01:25:11.421Z,12.50
2018-08-31T01:27:39.346Z,12.60
2018-08-31T01:30:07.864Z,12.50
2018-08-31T01:32:35.743Z,12.60
2018-08-31T01:35:03.858Z,12.60
2018-08-31T01:37:32.278Z,12.60
2018-08-31T01:40:00.056Z,12.60
2018-08-31T01:42:27.857Z,12.60
2018-08-31T01:44:55.642Z,12.70
2018-08-31T01:47:23.379Z,12.70
2018-08-31T01:49:51.104Z,12.70
2018-08-31T01:52:18.884Z,12.70
2018-08-31T01:54:46.750Z,12.70
2018-08-31T01:57:14.578Z,12.70
2018-08-31T01:59:42.327Z,12.90
2018-08-31T02:02:10.205Z,13.10
2018-08-31T02:04:38.114Z,13.10
2018-08-31T02:07:06.031Z,13.10
2018-08-31T02:09:33.895Z,13.10
2018-08-31T02:12:01.971Z,13.10
2018-08-31T02:14:29.706Z,13.00
2018-08-31T02:16:57.454Z,12.90
2018-08-31T02:19:25.179Z,12.80
2018-08-31T02:21:53.129Z,12.70
2018-08-31T02:24:20.904Z,12.60
2018-08-31T02:26:48.646Z,12.70
2018-08-31T02:29:16.671Z,12.80
2018-08-31T02:31:44.498Z,12.70
2018-08-31T02:34:12.361Z,12.70
2018-08-31T02:36:40.227Z,12.60
2018-08-31T02:39:08.335Z,12.50
2018-08-31T02:41:36.064Z,12.40
2018-08-31T02:44:03.835Z,12.30
2018-08-31T02:46:31.744Z,12.30
2018-08-31T02:48:59.579Z,12.20
2018-08-31T02:51:27.439Z,12.30
2018-08-31T02:53:55.264Z,12.30
2018-08-31T02:56:23.067Z,12.30
2018-08-31T02:58:50.943Z,12.30
2018-08-31T03:01:18.810Z,12.30
2018-08-31T03:03:46.601Z,12.30
2018-08-31T03:06:14.543Z,12.30
2018-08-31T03:08:42.338Z,12.20
2018-08-31T03:11:10.177Z,12.20
2018-08-31T03:13:38.296Z,12.20
2018-08-31T03:16:06.486Z,12.30
2018-08-31T03:18:34.278Z,12.30
2018-08-31T03:21:02.018Z,12.30
2018-08-31T03:23:30.031Z,12.30
2018-08-31T03:25:57.889Z,12.30
2018-08-31T03:28:25.622Z,12.30
2018-08-31T03:30:53.374Z,12.30
2018-08-31T03:33:21.132Z,12.40
2018-08-31T03:35:49.007Z,12.40
2018-08-31T03:38:16.821Z,12.50
2018-08-31T03:40:44.714Z,12.50
2018-08-31T03:43:12.496Z,12.50
2018-08-31T03:45:40.296Z,12.50
2018-08-31T03:48:08.054Z,12.40
2018-08-31T03:50:35.994Z,12.50
2018-08-31T03:53:03.933Z,12.50
2018-08-31T03:55:31.847Z,12.50
2018-08-31T03:57:59.678Z,12.40
2018-08-31T04:00:27.624Z,12.40
2018-08-31T04:02:55.620Z,12.40
2018-08-31T04:05:23.531Z,12.40
2018-08-31T04:07:51.267Z,12.50
2018-08-31T04:10:19.104Z,12.50
2018-08-31T04:12:47.145Z,12.50
2018-08-31T04:15:14.951Z,12.60
2018-08-31T04:17:43.069Z,12.50
2018-08-31T04:20:15.861Z,12.50
2018-08-31T04:22:43.672Z,12.40
2018-08-31T04:25:11.462Z,12.50
2018-08-31T04:27:39.219Z,12.50
2018-08-31T04:30:07.385Z,12.40
2018-08-31T04:32:35.163Z,12.50
2018-08-31T04:35:02.996Z,12.50
2018-08-31T04:37:30.941Z,12.50
2018-08-31T04:39:58.763Z,12.50
2018-08-31T04:42:26.623Z,12.50
2018-08-31T04:44:54.662Z,12.50
2018-08-31T04:47:22.828Z,12.40
2018-08-31T04:49:50.713Z,12.40
2018-08-31T04:52:18.473Z,12.30
2018-08-31T04:54:46.271Z,12.40
2018-08-31T04:57:14.505Z,12.30
2018-08-31T04:59:42.460Z,12.40
2018-08-31T05:02:10.318Z,12.50
2018-08-31T05:04:38.038Z,12.50
2018-08-31T05:07:05.901Z,12.50
2018-08-31T05:09:33.671Z,12.50
2018-08-31T05:12:01.700Z,12.50
2018-08-31T05:14:29.614Z,12.60
2018-08-31T05:16:57.481Z,12.60
2018-08-31T05:19:25.494Z,12.60
2018-08-31T05:21:53.482Z,12.60
2018-08-31T05:24:21.343Z,12.60
2018-08-31T05:26:49.342Z,12.70
2018-08-31T05:29:17.192Z,12.80
2018-08-31T05:31:44.937Z,12.80
2018-08-31T05:34:12.868Z,12.90
2018-08-31T05:36:40.775Z,13.00
2018-08-31T05:39:09.947Z,13.00
2018-08-31T05:41:38.007Z,13.10
2018-08-31T05:44:05.802Z,13.00
2018-08-31T05:46:33.765Z,13.10
2018-08-31T05:49:01.495Z,13.20
2018-08-31T05:51:29.204Z,13.20
2018-08-31T05:53:57.020Z,13.30
2018-08-31T05:56:24.986Z,13.30
2018-08-31T05:58:52.890Z,13.40
2018-08-31T06:01:20.697Z,13.50
2018-08-31T06:03:48.589Z,13.40
2018-08-31T06:06:16.489Z,13.40
2018-08-31T06:08:44.448Z,13.50
2018-08-31T06:11:12.442Z,13.50
2018-08-31T06:13:40.335Z,13.50
2018-08-31T06:16:08.478Z,13.60
2018-08-31T06:18:36.447Z,13.70
2018-08-31T06:21:04.255Z,13.80
2018-08-31T06:23:32.092Z,13.80
2018-08-31T06:25:59.943Z,13.80
2018-08-31T06:28:27.709Z,13.90
2018-08-31T06:30:55.595Z,13.90
2018-08-31T06:33:23.410Z,14.00
2018-08-31T06:35:51.314Z,14.00
2018-08-31T06:38:19.066Z,14.10
2018-08-31T06:40:46.989Z,14.10
2018-08-31T06:43:14.708Z,14.10
2018-08-31T06:45:42.600Z,14.20
2018-08-31T06:48:10.311Z,14.30
2018-08-31T06:50:38.104Z,14.50
2018-08-31T06:53:06.066Z,14.50
2018-08-31T06:55:33.976Z,14.50
2018-08-31T06:58:02.208Z,14.60
2018-08-31T07:00:30.132Z,14.60
2018-08-31T07:02:57.960Z,14.70
2018-08-31T07:05:25.728Z,14.60
2018-08-31T07:07:53.550Z,14.80
2018-08-31T07:10:21.350Z,15.00
2018-08-31T07:12:49.407Z,15.10
2018-08-31T07:15:17.529Z,15.20
2018-08-31T07:17:45.354Z,15.20
2018-08-31T07:20:13.179Z,15.30
2018-08-31T07:22:41.089Z,15.30
2018-08-31T07:25:08.973Z,15.50
2018-08-31T07:27:36.774Z,15.40
2018-08-31T07:30:05.099Z,15.60
2018-08-31T07:32:32.872Z,15.80
2018-08-31T07:35:00.789Z,15.90
2018-08-31T07:37:28.803Z,15.90
2018-08-31T07:39:56.735Z,15.50
2018-08-31T07:42:24.773Z,15.30
2018-08-31T07:44:52.666Z,15.10
2018-08-31T07:47:20.682Z,14.90
2018-08-31T07:49:48.472Z,14.90
2018-08-31T07:52:16.588Z,14.90
2018-08-31T07:54:44.477Z,15.10
2018-08-31T07:57:12.473Z,15.10
2018-08-31T07:59:40.291Z,15.30
2018-08-31T08:02:08.414Z,15.40
2018-08-31T08:04:36.455Z,15.40
2018-08-31T08:07:04.326Z,15.50
2018-08-31T08:09:32.178Z,15.50
2018-08-31T08:12:00.368Z,15.60
2018-08-31T08:14:28.148Z,15.70
2018-08-31T08:16:56.023Z,15.70
2018-08-31T08:19:23.939Z,15.70
2018-08-31T08:21:51.898Z,15.70
2018-08-31T08:24:19.824Z,15.80
2018-08-31T08:26:47.763Z,15.70
2018-08-31T08:29:15.719Z,15.50
2018-08-31T08:31:43.586Z,15.60
2018-08-31T08:34:11.502Z,15.70
2018-08-31T08:36:39.345Z,15.90
2018-08-31T08:39:07.699Z,16.20
2018-08-31T08:41:35.588Z,16.30
2018-08-31T08:44:03.838Z,16.40
2018-08-31T08:46:31.715Z,16.50
2018-08-31T08:48:59.547Z,16.50
2018-08-31T08:51:27.587Z,16.60
2018-08-31T08:53:55.331Z,16.70
2018-08-31T08:56:23.231Z,16.70
2018-08-31T08:58:51.239Z,16.80
2018-08-31T09:01:19.118Z,16.60
2018-08-31T09:03:47.054Z,16.70
2018-08-31T09:06:14.968Z,16.70
2018-08-31T09:08:42.739Z,16.70
2018-08-31T09:11:10.615Z,16.80
2018-08-31T09:13:38.459Z,16.60
2018-08-31T09:16:06.224Z,16.70
2018-08-31T09:18:34.163Z,16.70
2018-08-31T09:21:02.217Z,16.80
2018-08-31T09:23:30.024Z,16.90
2018-08-31T09:26:00.726Z,17.00
2018-08-31T09:28:28.767Z,17.10
2018-08-31T09:30:56.542Z,17.20
2018-08-31T09:33:24.339Z,17.40
2018-08-31T09:35:52.124Z,17.40
2018-08-31T09:38:19.955Z,17.40
2018-08-31T09:40:47.874Z,17.60
2018-08-31T09:43:15.872Z,17.90
2018-08-31T09:45:44.042Z,18.00
2018-08-31T09:48:11.901Z,17.70
2018-08-31T09:50:39.816Z,17.80
2018-08-31T09:53:07.702Z,17.80
2018-08-31T09:55:35.666Z,18.10
2018-08-31T09:58:03.743Z,18.20
2018-08-31T10:00:36.937Z,17.90
2018-08-31T10:03:11.854Z,17.70
2018-08-31T10:05:39.729Z,17.80
2018-08-31T10:08:07.752Z,17.90
2018-08-31T10:10:35.654Z,17.90
2018-08-31T10:13:03.542Z,17.70
2018-08-31T10:15:31.525Z,17.40
2018-08-31T10:17:59.287Z,17.20
2018-08-31T10:20:27.213Z,17.20
2018-08-31T10:22:55.224Z,17.40
2018-08-31T10:25:23.881Z,17.50
2018-08-31T10:27:51.704Z,17.30
2018-08-31T10:30:19.595Z,17.00
2018-08-31T10:32:47.462Z,16.90
2018-08-31T10:35:15.161Z,17.10
2018-08-31T10:37:42.973Z,17.50
2018-08-31T10:40:10.779Z,17.70
2018-08-31T10:42:38.572Z,17.90
2018-08-31T10:45:06.927Z,17.70
2018-08-31T10:47:34.879Z,17.70
2018-08-31T10:50:02.879Z,17.90
2018-08-31T10:52:30.817Z,18.20
2018-08-31T10:54:58.677Z,18.40
2018-08-31T10:57:26.469Z,18.30
2018-08-31T10:59:54.540Z,18.60
2018-08-31T11:02:22.360Z,18.50
2018-08-31T11:04:50.422Z,18.80
2018-08-31T11:07:18.343Z,19.10
2018-08-31T11:09:46.127Z,19.40
2018-08-31T11:12:14.040Z,19.50
2018-08-31T11:14:41.945Z,19.60
2018-08-31T11:17:09.769Z,19.50
2018-08-31T11:19:37.900Z,19.30
2018-08-31T11:22:05.688Z,19.20
2018-08-31T11:24:33.896Z,19.10
2018-08-31T11:27:01.869Z,19.00
2018-08-31T11:29:29.995Z,19.10
2018-08-31T11:31:57.888Z,19.10
2018-08-31T11:34:26.177Z,18.90
2018-08-31T11:36:54.121Z,18.60
2018-08-31T11:39:22.072Z,18.80
2018-08-31T11:41:50.407Z,19.10
2018-08-31T11:44:18.570Z,19.40
2018-08-31T11:46:46.439Z,19.70
2018-08-31T11:49:14.352Z,20.00
2018-08-31T11:51:42.492Z,20.10
2018-08-31T11:54:10.357Z,20.30
2018-08-31T11:56:38.533Z,20.10
2018-08-31T11:59:06.313Z,20.20
2018-08-31T12:01:34.319Z,20.00
2018-08-31T12:04:02.174Z,19.50
2018-08-31T12:06:30.166Z,19.30
2018-08-31T12:08:58.136Z,19.40
2018-08-31T12:11:25.940Z,19.40
2018-08-31T12:13:53.693Z,19.30
2018-08-31T12:16:21.559Z,19.50
2018-08-31T12:18:49.624Z,19.50
2018-08-31T12:21:17.968Z,19.70
2018-08-31T12:23:45.824Z,20.10
2018-08-31T12:28:41.213Z,20.50
2018-08-31T12:31:09.185Z,20.20
2018-08-31T12:33:37.008Z,20.30
2018-08-31T12:36:04.993Z,20.40
2018-08-31T12:38:32.764Z,20.10
2018-08-31T12:41:00.649Z,19.60
2018-08-31T12:43:28.481Z,19.50
2018-08-31T12:45:56.378Z,19.30
2018-08-31T12:48:24.214Z,19.00
2018-08-31T12:50:52.110Z,18.70
2018-08-31T12:53:19.980Z,18.50
2018-08-31T12:55:47.810Z,18.40
2018-08-31T12:58:15.651Z,18.50
2018-08-31T13:00:43.596Z,18.70
2018-08-31T13:03:11.381Z,18.90
2018-08-31T13:05:39.233Z,19.00
2018-08-31T13:08:07.081Z,19.00
2018-08-31T13:10:35.044Z,19.10
2018-08-31T13:13:03.351Z,19.20
2018-08-31T13:15:31.276Z,19.50
2018-08-31T13:17:59.280Z,19.80
2018-08-31T13:20:27.193Z,19.60
2018-08-31T13:22:55.074Z,19.70
2018-08-31T13:25:22.923Z,19.80
2018-08-31T13:27:50.871Z,19.60
2018-08-31T13:30:18.898Z,19.80
2018-08-31T13:32:46.886Z,19.90
2018-08-31T13:35:14.921Z,20.00
2018-08-31T13:37:42.892Z,20.00
2018-08-31T13:40:10.817Z,20.10
2018-08-31T13:42:38.855Z,20.40
2018-08-31T13:45:06.709Z,20.10
2018-08-31T13:47:34.635Z,20.10
2018-08-31T13:50:02.746Z,20.10
2018-08-31T13:52:30.665Z,20.30
2018-08-31T13:54:58.575Z,20.40
2018-08-31T13:57:26.500Z,20.50
2018-08-31T13:59:54.311Z,20.60
2018-08-31T14:02:22.288Z,20.40
2018-08-31T14:04:50.272Z,20.40
2018-08-31T14:07:18.261Z,20.40
2018-08-31T14:09:46.128Z,20.40
2018-08-31T14:12:14.081Z,20.40
2018-08-31T14:14:42.414Z,20.40
2018-08-31T14:17:10.236Z,20.20
2018-08-31T14:19:38.342Z,20.00
2018-08-31T14:22:06.417Z,19.90
2018-08-31T14:24:34.305Z,19.80
2018-08-31T14:27:02.583Z,19.80
2018-08-31T14:29:30.620Z,19.80
2018-08-31T14:31:58.526Z,19.80
2018-08-31T14:34:26.454Z,19.80
2018-08-31T14:36:54.411Z,19.60
2018-08-31T14:39:22.333Z,19.80
2018-08-31T14:41:50.450Z,19.70
2018-08-31T14:44:18.312Z,19.70
2018-08-31T14:46:46.320Z,19.60
2018-08-31T14:49:14.260Z,19.60
2018-08-31T14:51:42.153Z,19.80
2018-08-31T14:54:09.962Z,19.70
2018-08-31T14:56:37.868Z,19.80
2018-08-31T14:59:05.865Z,19.80
2018-08-31T15:01:34.381Z,19.50
2018-08-31T15:04:02.901Z,19.40
2018-08-31T15:06:30.790Z,19.40
2018-08-31T15:08:58.640Z,19.40
2018-08-31T15:11:26.718Z,19.40
2018-08-31T15:13:54.519Z,19.50
2018-08-31T15:16:22.619Z,19.50
2018-08-31T15:18:50.516Z,19.40
2018-08-31T15:21:18.996Z,19.30
2018-08-31T15:23:46.835Z,19.30
2018-08-31T15:26:14.736Z,19.40
2018-08-31T15:28:42.827Z,19.50
2018-08-31T15:31:11.435Z,19.20
2018-08-31T15:33:39.432Z,19.00
2018-08-31T15:36:07.500Z,18.70
2018-08-31T15:38:36.056Z,18.70
2018-08-31T15:41:04.196Z,18.90
2018-08-31T15:43:32.162Z,19.20
2018-08-31T15:46:00.071Z,19.20
2018-08-31T15:48:28.071Z,19.00
2018-08-31T15:50:56.044Z,18.90
2018-08-31T15:53:24.216Z,18.70
2018-08-31T15:55:52.197Z,18.60
2018-08-31T15:58:20.328Z,18.50
2018-08-31T16:00:48.161Z,18.50
2018-08-31T16:03:16.213Z,18.50
2018-08-31T16:05:44.212Z,18.60
2018-08-31T16:08:12.063Z,18.60
2018-08-31T16:10:39.896Z,18.40
2018-08-31T16:13:07.897Z,18.30
2018-08-31T16:15:37.498Z,18.40
2018-08-31T16:18:05.401Z,18.50
2018-08-31T16:20:33.269Z,18.40
2018-08-31T16:23:01.318Z,18.40
2018-08-31T16:25:29.336Z,18.20
2018-08-31T16:27:57.283Z,18.10
2018-08-31T16:30:25.171Z,18.10
2018-08-31T16:32:53.506Z,18.10
2018-08-31T16:35:21.526Z,18.00
2018-08-31T16:37:49.442Z,18.20
2018-08-31T16:40:17.312Z,18.30
2018-08-31T16:42:45.248Z,18.50
2018-08-31T16:45:13.551Z,18.60
2018-08-31T16:47:41.568Z,18.60
2018-08-31T16:50:09.600Z,18.70
2018-08-31T16:52:37.794Z,18.60
2018-08-31T16:55:05.908Z,18.50
2018-08-31T16:57:33.964Z,18.50
2018-08-31T17:00:01.805Z,18.50
2018-08-31T17:02:29.805Z,18.60
2018-08-31T17:04:58.075Z,18.50
2018-08-31T17:07:26.062Z,18.40
2018-08-31T17:09:53.967Z,18.50
2018-08-31T17:12:21.860Z,18.50
2018-08-31T17:14:49.858Z,18.40
2018-08-31T17:17:17.722Z,18.30
2018-08-31T17:19:45.926Z,18.30
2018-08-31T17:22:13.803Z,18.10
2018-08-31T17:24:41.848Z,18.00
2018-08-31T17:27:15.290Z,17.90
2018-08-31T17:29:46.433Z,17.90
2018-08-31T17:32:19.966Z,17.90
2018-08-31T17:34:53.349Z,17.80
2018-08-31T17:37:26.515Z,17.80
2018-08-31T17:39:55.353Z,17.70
2018-08-31T17:42:23.396Z,17.70
2018-08-31T17:44:51.446Z,17.70
2018-08-31T17:47:19.356Z,17.70
2018-08-31T17:49:47.838Z,17.70
2018-08-31T17:52:15.995Z,17.60
2018-08-31T17:54:44.187Z,17.50
2018-08-31T17:57:12.083Z,17.30
2018-08-31T17:59:39.953Z,17.20
2018-08-31T18:02:08.260Z,17.00
2018-08-31T18:04:36.184Z,16.90
2018-08-31T18:07:04.119Z,16.70
2018-08-31T18:09:32.351Z,16.60
2018-08-31T18:12:00.165Z,16.50
2018-08-31T18:14:28.121Z,16.50
2018-08-31T18:16:56.200Z,16.40
2018-08-31T18:19:24.317Z,16.30
2018-08-31T18:21:52.292Z,16.20
2018-08-31T18:24:20.184Z,16.10
2018-08-31T18:26:48.106Z,16.00
2018-08-31T18:29:15.966Z,16.00
2018-08-31T18:31:44.205Z,15.90
2018-08-31T18:34:12.139Z,15.80
2018-08-31T18:36:39.946Z,15.70
2018-08-31T18:39:08.475Z,15.60
2018-08-31T18:41:37.138Z,15.50
2018-08-31T18:44:05.749Z,15.50
2018-08-31T18:46:33.812Z,15.40
2018-08-31T18:49:02.570Z,15.20
2018-08-31T18:51:30.404Z,15.00
2018-08-31T18:53:58.306Z,14.90
2018-08-31T18:56:26.537Z,14.70
2018-08-31T18:58:54.482Z,14.50
2018-08-31T19:01:22.447Z,14.50
2018-08-31T19:03:50.903Z,14.50
2018-08-31T19:06:18.729Z,14.40
2018-08-31T19:08:46.771Z,14.30
2018-08-31T19:11:15.019Z,14.30
2018-08-31T19:13:42.925Z,14.20
2018-08-31T19:16:11.430Z,14.10
2018-08-31T19:18:39.398Z,14.00
2018-08-31T19:21:07.707Z,13.90
2018-08-31T19:23:35.895Z,13.90
2018-08-31T19:26:04.238Z,13.80
2018-08-31T19:28:32.527Z,13.70
2018-08-31T19:31:00.689Z,13.60
2018-08-31T19:33:28.799Z,13.60
2018-08-31T19:35:56.801Z,13.60
2018-08-31T19:38:27.609Z,13.40
2018-08-31T19:40:55.961Z,13.40
2018-08-31T19:43:24.097Z,13.30
2018-08-31T19:45:52.508Z,13.10
2018-08-31T19:48:20.486Z,13.10
2018-08-31T19:50:48.761Z,13.20
2018-08-31T19:53:17.081Z,13.30
2018-08-31T19:55:45.186Z,13.30
2018-08-31T19:58:13.581Z,13.30
2018-08-31T20:00:41.839Z,13.20
2018-08-31T20:03:09.801Z,13.10
2018-08-31T20:05:38.104Z,12.90
2018-08-31T20:08:06.210Z,12.90
2018-08-31T20:10:34.232Z,12.90
2018-08-31T20:13:02.418Z,12.90
2018-08-31T20:15:30.409Z,12.80
2018-08-31T20:17:58.537Z,12.80
2018-08-31T20:20:26.796Z,12.80
2018-08-31T20:22:54.956Z,12.70
2018-08-31T20:25:23.135Z,12.70
2018-08-31T20:27:51.508Z,12.60
2018-08-31T20:30:19.416Z,12.60
2018-08-31T20:32:47.638Z,12.50
2018-08-31T20:35:15.701Z,12.40
2018-08-31T20:37:43.613Z,12.30
2018-08-31T20:40:12.041Z,12.30
2018-08-31T20:42:40.160Z,12.30
2018-08-31T20:45:08.487Z,12.30
2018-08-31T20:47:36.569Z,12.30
2018-08-31T20:50:04.925Z,12.20
2018-08-31T20:52:32.922Z,12.10
2018-08-31T20:55:01.124Z,12.00
2018-08-31T20:57:29.458Z,12.00
2018-08-31T20:59:58.049Z,11.90
2018-08-31T21:02:26.161Z,11.90
2018-08-31T21:04:54.321Z,11.90
2018-08-31T21:07:22.651Z,11.90
2018-08-31T21:09:50.619Z,11.80
2018-08-31T21:12:18.740Z,11.80
2018-08-31T21:14:46.814Z,11.80
2018-08-31T21:17:14.722Z,11.80
2018-08-31T21:19:42.676Z,11.80
2018-08-31T21:22:10.576Z,11.70
2018-08-31T21:24:38.408Z,11.60
2018-08-31T21:27:06.620Z,11.50
2018-08-31T21:29:34.771Z,11.40
2018-08-31T21:32:02.860Z,11.50
2018-08-31T21:34:31.014Z,11.40
2018-08-31T21:36:58.897Z,11.40
2018-08-31T21:39:26.823Z,11.30
2018-08-31T21:41:54.764Z,11.20
2018-08-31T21:44:22.684Z,11.20
2018-08-31T21:46:50.721Z,11.10
2018-08-31T21:49:18.641Z,11.20
2018-08-31T21:51:46.679Z,11.10
2018-08-31T21:54:14.619Z,11.20
2018-08-31T21:56:42.550Z,11.30
2018-08-31T21:59:10.505Z,11.30
2018-08-31T22:01:38.882Z,11.20
2018-08-31T22:04:07.129Z,11.10
2018-08-31T22:06:35.909Z,11.00
2018-08-31T22:09:04.925Z,11.00
2018-08-31T22:11:32.915Z,11.00
2018-08-31T22:14:00.672Z,11.00
2018-08-31T22:16:28.770Z,11.00
2018-08-31T22:18:56.548Z,11.00
2018-08-31T22:21:24.581Z,10.90
2018-08-31T22:23:52.602Z,10.90
2018-08-31T22:26:20.543Z,10.80
2018-08-31T22:28:48.435Z,10.80
2018-08-31T22:31:16.407Z,10.90
2018-08-31T22:33:44.293Z,10.90
2018-08-31T22:36:12.142Z,11.00
2018-08-31T22:38:40.551Z,11.10
2018-08-31T22:41:08.793Z,11.00
2018-08-31T22:43:42.184Z,10.90
2018-08-31T22:46:10.025Z,10.80
2018-08-31T22:48:37.978Z,10.80
2018-08-31T22:51:05.851Z,10.80
2018-08-31T22:53:33.774Z,10.80
2018-08-31T22:56:01.563Z,10.80
2018-08-31T22:58:29.493Z,10.70
2018-08-31T23:00:57.485Z,10.60
2018-08-31T23:03:25.455Z,10.60
2018-08-31T23:05:53.380Z,10.60
2018-08-31T23:08:21.505Z,10.60
2018-08-31T23:10:49.538Z,10.50
2018-08-31T23:13:17.379Z,10.40
2018-08-31T23:15:45.272Z,10.50
2018-08-31T23:18:13.290Z,10.40
2018-08-31T23:20:41.324Z,10.40
2018-08-31T23:23:14.663Z,10.40
2018-08-31T23:25:48.724Z,10.40
2018-08-31T23:28:17.031Z,10.30
2018-08-31T23:30:45.073Z,10.20
2018-08-31T23:33:13.240Z,10.10
2018-08-31T23:35:41.026Z,10.00
2018-08-31T23:38:08.882Z,10.00
2018-08-31T23:40:36.827Z,10.00
2018-08-31T23:43:04.697Z,10.10
2018-08-31T23:45:32.551Z,10.10
2018-08-31T23:48:00.404Z,10.20
2018-08-31T23:50:28.210Z,10.20
2018-08-31T23:52:56.235Z,10.10
2018-08-31T23:55:24.467Z,10.00
2018-08-31T23:57:52.182Z,10.00
